createdAt,value
2022-08-19T00:01:29.152Z,63.04
2022-08-19T00:03:33.890Z,63.21
2022-08-19T00:05:37.412Z,63.16
2022-08-19T00:07:43.857Z,63.32
2022-08-19T00:09:47.414Z,63.35
2022-08-19T00:11:51.541Z,63.54
2022-08-19T00:13:56.346Z,63.07
2022-08-19T00:16:00.711Z,63.02
2022-08-19T00:18:04.225Z,63.65
2022-08-19T00:20:09.435Z,63.67
2022-08-19T00:22:12.925Z,64.11
2022-08-19T00:24:18.129Z,63.77
2022-08-19T00:26:22.068Z,64.09
2022-08-19T00:28:25.451Z,64.02
2022-08-19T00:30:29.367Z,64.36
2022-08-19T00:32:32.830Z,64.21
2022-08-19T00:34:37.502Z,64.03
2022-08-19T00:36:41.642Z,63.55
2022-08-19T00:38:45.115Z,63.56
2022-08-19T00:40:51.201Z,63.74
2022-08-19T00:42:55.038Z,63.19
2022-08-19T00:44:58.686Z,64.12
2022-08-19T00:47:02.114Z,64.20
2022-08-19T00:49:11.845Z,65.00
2022-08-19T00:51:15.374Z,65.44
2022-08-19T00:53:23.778Z,65.48
2022-08-19T00:55:29.723Z,65.41
2022-08-19T00:57:38.767Z,65.04
2022-08-19T01:00:00.547Z,65.33
2022-08-19T01:02:07.082Z,65.51
2022-08-19T01:04:10.699Z,65.47
2022-08-19T01:06:14.114Z,65.63
2022-08-19T01:08:23.700Z,66.32
2022-08-19T01:10:34.815Z,66.53
2022-08-19T01:12:42.314Z,66.09
2022-08-19T01:14:47.291Z,67.38
2022-08-19T01:16:55.358Z,66.73
2022-08-19T01:18:58.836Z,66.52
2022-08-19T01:21:08.009Z,66.27
2022-08-19T01:23:14.474Z,66.15
2022-08-19T01:25:20.884Z,66.88
2022-08-19T01:27:24.727Z,66.51
2022-08-19T01:29:28.305Z,67.58
2022-08-19T01:31:32.646Z,67.48
2022-08-19T01:33:36.509Z,67.94
2022-08-19T01:35:39.921Z,68.18
2022-08-19T01:37:52.907Z,67.73
2022-08-19T01:39:57.851Z,67.52
2022-08-19T01:42:04.075Z,68.83
2022-08-19T01:44:18.937Z,67.85
2022-08-19T01:46:25.067Z,68.15
2022-08-19T01:48:30.148Z,68.16
2022-08-19T01:50:34.778Z,69.10
2022-08-19T01:52:38.696Z,68.15
2022-08-19T01:54:42.090Z,68.35
2022-08-19T01:56:46.990Z,69.32
2022-08-19T01:58:53.652Z,68.95
2022-08-19T02:00:57.122Z,69.22
2022-08-19T02:03:02.067Z,68.29
2022-08-19T02:05:08.054Z,69.42
2022-08-19T02:07:14.587Z,70.27
2022-08-19T02:09:17.960Z,68.94
2022-08-19T02:11:24.503Z,68.92
2022-08-19T02:13:29.604Z,69.69
2022-08-19T02:15:33.025Z,69.99
2022-08-19T02:17:36.446Z,69.03
2022-08-19T02:19:41.104Z,69.07
2022-08-19T02:21:45.112Z,69.12
2022-08-19T02:23:49.370Z,69.68
2022-08-19T02:25:54.295Z,70.03
2022-08-19T02:27:57.938Z,69.83
2022-08-19T02:30:03.075Z,69.67
2022-08-19T02:32:06.701Z,69.67
2022-08-19T02:34:10.208Z,70.09
2022-08-19T02:36:15.556Z,69.57
2022-08-19T02:38:27.228Z,68.77
2022-08-19T02:40:34.828Z,69.54
2022-08-19T02:42:38.279Z,70.04
2022-08-19T02:44:42.043Z,69.44
2022-08-19T02:46:48.900Z,69.37
2022-08-19T02:48:58.089Z,69.62
2022-08-19T02:51:01.811Z,70.06
2022-08-19T02:53:05.221Z,70.57
2022-08-19T02:55:09.840Z,69.81
2022-08-19T02:57:13.263Z,69.21
2022-08-19T02:59:16.715Z,69.26
2022-08-19T03:01:24.960Z,69.66
2022-08-19T03:03:30.559Z,70.35
2022-08-19T03:05:48.394Z,69.33
2022-08-19T03:07:57.483Z,69.97
2022-08-19T03:10:00.902Z,69.97
2022-08-19T03:12:05.248Z,70.27
2022-08-19T03:14:10.045Z,70.27
2022-08-19T03:16:14.521Z,70.08
2022-08-19T03:18:18.707Z,69.47
2022-08-19T03:20:23.527Z,70.72
2022-08-19T03:22:27.391Z,70.38
2022-08-19T03:24:31.619Z,69.70
2022-08-19T03:26:36.166Z,70.03
2022-08-19T03:28:39.904Z,69.83
2022-08-19T03:30:44.771Z,70.50
2022-08-19T03:32:48.213Z,70.87
2022-08-19T03:34:57.073Z,71.61
2022-08-19T03:37:06.294Z,71.53
2022-08-19T03:39:10.351Z,72.96
2022-08-19T03:41:16.297Z,72.31
2022-08-19T03:43:20.085Z,71.66
2022-08-19T03:45:23.491Z,70.99
2022-08-19T03:47:27.507Z,71.85
2022-08-19T03:49:33.655Z,71.81
2022-08-19T03:51:40.406Z,71.73
2022-08-19T03:53:45.216Z,71.30
2022-08-19T03:55:48.748Z,71.21
2022-08-19T03:57:55.200Z,71.69
2022-08-19T04:00:12.916Z,71.45
2022-08-19T04:02:17.708Z,71.31
2022-08-19T04:04:21.172Z,71.54
2022-08-19T04:06:26.835Z,71.24
2022-08-19T04:08:30.269Z,71.33
2022-08-19T04:10:37.851Z,70.88
2022-08-19T04:12:41.369Z,71.74
2022-08-19T04:14:45.442Z,70.96
2022-08-19T04:16:54.125Z,69.82
2022-08-19T04:19:01.499Z,70.64
2022-08-19T04:21:06.207Z,72.36
2022-08-19T04:23:09.706Z,70.60
2022-08-19T04:25:13.252Z,71.45
2022-08-19T04:27:18.059Z,71.15
2022-08-19T04:29:25.999Z,72.15
2022-08-19T04:31:32.115Z,71.56
2022-08-19T04:33:35.616Z,71.00
2022-08-19T04:35:41.584Z,71.18
2022-08-19T04:37:44.995Z,70.22
2022-08-19T04:40:06.254Z,70.65
2022-08-19T04:42:30.747Z,70.74
2022-08-19T04:44:45.921Z,71.06
2022-08-19T04:46:51.949Z,71.04
2022-08-19T04:48:57.738Z,71.68
2022-08-19T04:51:01.187Z,71.41
2022-08-19T04:53:06.097Z,71.02
2022-08-19T04:55:10.465Z,70.29
2022-08-19T04:57:13.889Z,70.14
2022-08-19T04:59:17.529Z,70.40
2022-08-19T05:01:25.153Z,71.48
2022-08-19T05:03:31.069Z,71.37
2022-08-19T05:05:44.753Z,72.29
2022-08-19T05:07:48.942Z,71.93
2022-08-19T05:09:57.757Z,72.38
2022-08-19T05:12:02.598Z,73.17
2022-08-19T05:14:06.102Z,72.19
2022-08-19T05:16:09.474Z,71.89
2022-08-19T05:18:31.881Z,71.64
2022-08-19T05:20:53.034Z,71.13
2022-08-19T05:22:56.683Z,72.16
2022-08-19T05:25:12.707Z,71.92
2022-08-19T05:27:16.895Z,72.72
2022-08-19T05:29:22.974Z,72.93
2022-08-19T05:31:26.406Z,73.56
2022-08-19T05:33:32.214Z,74.13
2022-08-19T05:35:35.630Z,74.20
2022-08-19T05:37:41.146Z,73.66
2022-08-19T05:39:48.459Z,74.37
2022-08-19T05:41:57.993Z,75.11
2022-08-19T05:44:07.397Z,75.34
2022-08-19T05:46:20.067Z,75.15
2022-08-19T05:48:33.098Z,75.44
2022-08-19T05:50:38.046Z,75.49
2022-08-19T05:52:46.150Z,75.64
2022-08-19T05:54:56.206Z,75.93
2022-08-19T05:56:59.954Z,76.33
2022-08-19T05:59:03.365Z,75.78
2022-08-19T06:01:11.876Z,76.30
2022-08-19T06:03:15.490Z,76.00
2022-08-19T06:05:21.105Z,76.13
2022-08-19T06:07:24.941Z,76.27
2022-08-19T06:09:28.541Z,76.64
2022-08-19T06:11:36.744Z,76.35
2022-08-19T06:13:40.162Z,76.43
2022-08-19T06:15:45.273Z,76.55
2022-08-19T06:17:48.818Z,76.70
2022-08-19T06:19:52.260Z,76.54
2022-08-19T06:21:57.636Z,76.32
2022-08-19T06:24:01.558Z,76.87
2022-08-19T06:26:05.225Z,76.97
2022-08-19T06:28:15.115Z,76.34
2022-08-19T06:30:19.469Z,76.48
2022-08-19T06:32:22.880Z,75.94
2022-08-19T06:34:28.323Z,76.00
2022-08-19T06:36:35.238Z,75.42
2022-08-19T06:38:40.451Z,75.94
2022-08-19T06:42:54.144Z,76.67
2022-08-19T06:44:58.959Z,76.65
2022-08-19T06:47:09.488Z,76.25
2022-08-19T06:49:19.513Z,76.45
2022-08-19T06:51:24.912Z,76.56
2022-08-19T06:53:29.139Z,77.32
2022-08-19T06:55:34.297Z,75.89
2022-08-19T06:57:39.829Z,74.77
2022-08-19T06:59:43.234Z,75.88
2022-08-19T07:01:49.578Z,76.83
2022-08-19T07:03:52.946Z,75.34
2022-08-19T07:05:56.369Z,75.79
2022-08-19T07:08:04.624Z,75.66
2022-08-19T07:10:09.647Z,75.96
2022-08-19T07:12:16.253Z,75.94
2022-08-19T07:14:24.043Z,75.28
2022-08-19T07:16:29.433Z,74.90
2022-08-19T07:18:33.619Z,74.88
2022-08-19T07:20:39.362Z,74.51
2022-08-19T07:22:42.811Z,76.37
2022-08-19T07:24:51.109Z,76.47
2022-08-19T07:26:57.719Z,75.71
2022-08-19T07:29:03.346Z,75.50
2022-08-19T07:31:08.220Z,75.43
2022-08-19T07:33:12.543Z,75.37
2022-08-19T07:35:20.302Z,76.06
2022-08-19T07:37:23.846Z,76.36
2022-08-19T07:39:30.261Z,75.46
2022-08-19T07:41:33.848Z,75.36
2022-08-19T07:43:37.417Z,75.69
2022-08-19T07:45:43.326Z,75.42
2022-08-19T07:47:48.968Z,75.72
2022-08-19T07:49:54.023Z,76.79
2022-08-19T07:52:00.215Z,76.47
2022-08-19T07:54:04.523Z,76.13
2022-08-19T07:56:08.699Z,76.51
2022-08-19T07:58:14.413Z,76.62
2022-08-19T08:00:21.715Z,76.79
2022-08-19T08:02:29.598Z,76.74
2022-08-19T08:04:52.648Z,76.48
2022-08-19T08:07:13.859Z,76.30
2022-08-19T08:11:25.360Z,75.16
2022-08-19T08:13:36.107Z,75.84
2022-08-19T08:15:43.019Z,75.71
2022-08-19T08:17:51.549Z,76.02
2022-08-19T08:19:55.276Z,75.85
2022-08-19T08:22:01.352Z,76.18
2022-08-19T08:24:04.397Z,75.27
2022-08-19T08:26:08.069Z,74.60
2022-08-19T08:28:17.688Z,74.76
2022-08-19T08:30:23.803Z,74.68
2022-08-19T08:32:27.894Z,73.96
2022-08-19T08:34:32.877Z,73.78
2022-08-19T08:36:42.675Z,73.62
2022-08-19T08:38:47.589Z,73.08
2022-08-19T08:40:55.247Z,73.17
2022-08-19T08:43:06.116Z,73.01
2022-08-19T08:45:18.777Z,72.94
2022-08-19T08:47:24.193Z,71.92
2022-08-19T08:49:35.794Z,71.99
2022-08-19T08:53:56.148Z,71.67
2022-08-19T08:56:01.413Z,71.43
2022-08-19T08:58:07.793Z,70.73
2022-08-19T09:00:17.191Z,70.67
2022-08-19T09:02:21.012Z,68.88
2022-08-19T09:04:24.503Z,69.39
2022-08-19T09:06:37.853Z,68.18
2022-08-19T09:08:52.234Z,68.32
2022-08-19T09:11:01.717Z,68.15
2022-08-19T09:13:23.424Z,67.80
2022-08-19T09:15:36.831Z,67.39
2022-08-19T09:17:40.443Z,67.30
2022-08-19T09:19:55.282Z,66.41
2022-08-19T09:22:01.677Z,66.01
2022-08-19T09:24:06.471Z,65.82
2022-08-19T09:26:14.375Z,65.26
2022-08-19T09:28:25.454Z,65.47
2022-08-19T09:30:33.983Z,65.54
2022-08-19T09:32:37.899Z,64.69
2022-08-19T09:34:44.311Z,64.25
2022-08-19T09:36:48.143Z,63.06
2022-08-19T09:38:53.507Z,62.78
2022-08-19T09:40:56.926Z,61.94
2022-08-19T09:43:09.837Z,61.50
2022-08-19T09:45:13.600Z,61.92
2022-08-19T09:47:17.385Z,61.79
2022-08-19T09:49:24.375Z,61.26
2022-08-19T09:51:30.429Z,61.46
2022-08-19T09:53:34.173Z,60.74
2022-08-19T09:55:43.969Z,59.92
2022-08-19T09:57:47.552Z,59.24
2022-08-19T09:59:50.999Z,60.07
2022-08-19T10:01:54.772Z,59.04
2022-08-19T10:04:20.294Z,58.88
2022-08-19T10:06:46.471Z,57.72
2022-08-19T10:08:52.026Z,57.23
2022-08-19T10:10:59.086Z,55.74
2022-08-19T10:13:02.778Z,55.73
2022-08-19T10:15:07.945Z,56.35
2022-08-19T10:17:19.350Z,56.32
2022-08-19T10:19:26.402Z,56.55
2022-08-19T10:21:32.919Z,56.07
2022-08-19T10:23:38.654Z,55.66
2022-08-19T10:25:43.529Z,55.33
2022-08-19T10:27:51.149Z,55.19
2022-08-19T10:29:55.229Z,53.84
2022-08-19T10:32:00.594Z,53.67
2022-08-19T10:34:06.040Z,53.02
2022-08-19T10:36:12.411Z,53.11
2022-08-19T10:38:15.872Z,52.64
2022-08-19T10:40:19.851Z,52.11
2022-08-19T10:42:23.259Z,52.53
2022-08-19T10:44:32.547Z,52.38
2022-08-19T10:46:39.409Z,53.42
2022-08-19T10:48:44.454Z,53.64
2022-08-19T10:51:05.367Z,52.59
2022-08-19T10:53:10.435Z,52.10
2022-08-19T10:55:31.596Z,50.93
2022-08-19T10:58:01.227Z,51.02
2022-08-19T10:59:59.842Z,49.84
2022-08-19T11:02:05.595Z,48.78
2022-08-19T11:04:12.106Z,48.79
2022-08-19T11:06:15.549Z,48.86
2022-08-19T11:08:23.222Z,48.61
2022-08-19T11:10:27.404Z,48.77
2022-08-19T11:12:30.842Z,49.33
2022-08-19T11:14:35.290Z,48.97
2022-08-19T11:16:40.979Z,48.02
2022-08-19T11:18:45.971Z,48.87
2022-08-19T11:20:50.069Z,49.54
2022-08-19T11:22:54.855Z,49.51
2022-08-19T11:24:58.357Z,50.01
2022-08-19T11:27:06.995Z,50.88
2022-08-19T11:29:13.531Z,49.98
2022-08-19T11:31:19.689Z,50.36
2022-08-19T11:33:26.399Z,50.49
2022-08-19T11:35:29.970Z,50.40
2022-08-19T11:37:39.244Z,50.29
2022-08-19T11:39:42.808Z,51.58
2022-08-19T11:41:46.527Z,51.59
2022-08-19T11:43:50.262Z,51.75
2022-08-19T11:45:53.764Z,50.75
2022-08-19T11:47:58.138Z,51.24
2022-08-19T11:50:02.969Z,51.01
2022-08-19T11:52:06.513Z,51.62
2022-08-19T11:54:10.397Z,51.93
2022-08-19T11:56:14.457Z,50.84
2022-08-19T11:58:19.394Z,49.37
2022-08-19T12:00:22.938Z,49.11
2022-08-19T12:02:26.482Z,47.99
2022-08-19T12:04:29.898Z,47.93
2022-08-19T12:06:35.701Z,47.32
2022-08-19T12:08:39.276Z,46.99
2022-08-19T12:10:43.571Z,45.83
2022-08-19T12:12:47.388Z,45.08
2022-08-19T12:14:59.419Z,44.18
2022-08-19T12:17:03.171Z,44.84
2022-08-19T12:19:07.066Z,45.30
2022-08-19T12:21:11.912Z,45.00
2022-08-19T12:23:16.694Z,45.67
2022-08-19T12:25:20.441Z,46.19
2022-08-19T12:27:40.029Z,45.96
2022-08-19T12:29:44.809Z,46.29
2022-08-19T12:31:48.437Z,47.09
2022-08-19T12:33:53.373Z,46.18
2022-08-19T12:35:57.159Z,46.75
2022-08-19T12:38:02.664Z,46.00
2022-08-19T12:40:08.810Z,45.46
2022-08-19T12:42:13.785Z,44.80
2022-08-19T12:44:17.620Z,44.77
2022-08-19T12:46:26.113Z,43.74
2022-08-19T12:48:33.674Z,43.96
2022-08-19T12:50:38.125Z,44.24
2022-08-19T12:52:43.454Z,43.86
2022-08-19T12:54:47.270Z,43.80
2022-08-19T12:56:52.104Z,43.24
2022-08-19T12:58:55.491Z,42.64
2022-08-19T13:00:59.125Z,41.24
2022-08-19T13:03:02.716Z,41.31
2022-08-19T13:05:07.766Z,41.32
2022-08-19T13:07:11.220Z,41.17
2022-08-19T13:09:14.668Z,40.09
2022-08-19T13:11:21.990Z,39.30
2022-08-19T13:13:27.540Z,39.61
2022-08-19T13:15:32.121Z,39.42
2022-08-19T13:17:36.255Z,39.41
2022-08-19T13:19:40.962Z,39.79
2022-08-19T13:21:44.370Z,39.74
2022-08-19T13:23:49.864Z,39.21
2022-08-19T13:25:59.039Z,39.38
2022-08-19T13:28:02.504Z,39.99
2022-08-19T13:30:29.369Z,40.61
2022-08-19T13:32:50.408Z,41.24
2022-08-19T13:34:53.939Z,40.70
2022-08-19T13:36:57.363Z,39.28
2022-08-19T13:39:01.003Z,38.64
2022-08-19T13:41:12.095Z,38.70
2022-08-19T13:43:23.011Z,37.96
2022-08-19T13:45:31.104Z,37.00
2022-08-19T13:47:35.366Z,36.71
2022-08-19T13:49:38.859Z,36.70
2022-08-19T13:51:42.841Z,35.64
2022-08-19T13:53:48.206Z,36.17
2022-08-19T13:55:52.120Z,36.42
2022-08-19T13:57:56.682Z,35.64
2022-08-19T14:00:00.626Z,35.37
2022-08-19T14:02:06.355Z,35.25
2022-08-19T14:04:10.691Z,34.47
2022-08-19T14:06:14.289Z,34.47
2022-08-19T14:08:17.699Z,34.69
2022-08-19T14:10:22.895Z,34.79
2022-08-19T14:12:29.037Z,34.54
2022-08-19T14:14:32.498Z,34.76
2022-08-19T14:16:35.935Z,34.54
2022-08-19T14:18:41.306Z,34.50
2022-08-19T14:20:45.384Z,34.94
2022-08-19T14:22:50.274Z,34.88
2022-08-19T14:24:53.874Z,34.58
2022-08-19T14:26:57.488Z,34.36
2022-08-19T14:29:02.267Z,34.06
2022-08-19T14:31:05.852Z,34.18
2022-08-19T14:33:10.332Z,33.45
2022-08-19T14:35:17.286Z,33.08
2022-08-19T14:37:20.889Z,32.57
2022-08-19T14:39:24.463Z,32.47
2022-08-19T14:41:27.990Z,33.11
2022-08-19T14:43:31.420Z,32.99
2022-08-19T14:45:38.757Z,32.51
2022-08-19T14:47:45.275Z,32.25
2022-08-19T14:49:49.051Z,31.75
2022-08-19T14:51:55.789Z,31.52
2022-08-19T14:53:59.457Z,31.86
2022-08-19T14:56:03.515Z,30.96
2022-08-19T14:58:08.823Z,30.89
2022-08-19T15:00:14.607Z,31.26
2022-08-19T15:02:33.530Z,31.12
2022-08-19T15:04:37.897Z,30.59
2022-08-19T15:06:43.220Z,31.59
2022-08-19T15:08:48.099Z,30.57
2022-08-19T15:10:51.537Z,31.18
2022-08-19T15:12:55.762Z,30.74
2022-08-19T15:14:59.310Z,30.71
2022-08-19T15:17:04.299Z,31.04
2022-08-19T15:19:07.778Z,30.59
2022-08-19T15:21:13.348Z,30.81
2022-08-19T15:23:17.584Z,30.99
2022-08-19T15:25:22.493Z,30.04
2022-08-19T15:27:25.914Z,30.52
2022-08-19T15:29:31.761Z,30.92
2022-08-19T15:31:38.127Z,30.62
2022-08-19T15:33:45.020Z,31.02
2022-08-19T15:35:50.884Z,30.22
2022-08-19T15:37:56.665Z,30.00
2022-08-19T15:40:00.504Z,30.21
2022-08-19T15:42:05.796Z,29.83
2022-08-19T15:44:13.278Z,29.08
2022-08-19T15:46:18.866Z,29.91
2022-08-19T15:48:22.370Z,29.01
2022-08-19T15:50:25.943Z,29.69
2022-08-19T15:52:29.569Z,29.51
2022-08-19T15:54:33.012Z,30.20
2022-08-19T15:56:57.681Z,30.63
2022-08-19T15:59:24.360Z,30.51
2022-08-19T16:01:45.451Z,30.65
2022-08-19T16:04:11.105Z,31.18
2022-08-19T16:06:27.469Z,31.90
2022-08-19T16:08:31.352Z,33.81
2022-08-19T16:10:34.873Z,35.34
2022-08-19T16:12:39.221Z,36.31
2022-08-19T16:14:44.058Z,37.58
2022-08-19T16:16:48.423Z,37.57
2022-08-19T16:18:53.486Z,36.82
2022-08-19T16:20:56.894Z,36.43
2022-08-19T16:23:03.420Z,36.82
2022-08-19T16:25:09.001Z,37.46
2022-08-19T16:27:16.551Z,38.12
2022-08-19T16:29:34.257Z,38.51
2022-08-19T16:31:46.056Z,38.95
2022-08-19T16:33:49.646Z,39.96
2022-08-19T16:36:00.167Z,41.03
2022-08-19T16:38:08.078Z,41.27
2022-08-19T16:40:12.657Z,42.14
2022-08-19T16:42:16.364Z,42.82
2022-08-19T16:44:21.209Z,42.89
2022-08-19T16:46:27.035Z,43.36
2022-08-19T16:48:32.922Z,43.71
2022-08-19T16:50:49.231Z,43.60
2022-08-19T16:52:53.102Z,44.29
2022-08-19T16:54:56.584Z,44.68
2022-08-19T16:57:00.769Z,45.22
2022-08-19T16:59:05.027Z,45.40
2022-08-19T17:01:11.225Z,45.29
2022-08-19T17:03:15.340Z,45.20
2022-08-19T17:05:20.449Z,46.48
2022-08-19T17:07:24.255Z,46.76
2022-08-19T17:09:27.675Z,46.93
2022-08-19T17:11:36.949Z,46.51
2022-08-19T17:13:40.350Z,47.55
2022-08-19T17:15:46.727Z,48.48
2022-08-19T17:17:50.195Z,48.49
2022-08-19T17:19:54.018Z,49.28
2022-08-19T17:21:58.933Z,49.43
2022-08-19T17:24:04.555Z,50.31
2022-08-19T17:26:08.030Z,50.33
2022-08-19T17:28:20.452Z,50.33
2022-08-19T17:30:24.669Z,50.51
2022-08-19T17:32:28.291Z,50.35
2022-08-19T17:34:31.722Z,50.45
2022-08-19T17:36:36.557Z,50.46
2022-08-19T17:38:41.377Z,50.54
2022-08-19T17:40:45.887Z,50.12
2022-08-19T17:42:49.768Z,50.67
2022-08-19T17:44:53.217Z,50.68
2022-08-19T17:46:56.640Z,50.95
2022-08-19T17:49:00.184Z,50.08
2022-08-19T17:51:14.812Z,50.37
2022-08-19T17:53:18.410Z,50.18
2022-08-19T17:55:24.218Z,50.42
2022-08-19T17:57:27.661Z,50.64
2022-08-19T17:59:31.070Z,50.64
2022-08-19T18:01:52.448Z,50.30
2022-08-19T18:03:58.358Z,50.61
2022-08-19T18:06:01.816Z,50.68
2022-08-19T18:08:09.057Z,50.88
2022-08-19T18:10:13.590Z,51.28
2022-08-19T18:12:24.484Z,51.29
2022-08-19T18:14:34.101Z,51.84
2022-08-19T18:16:39.322Z,51.47
2022-08-19T18:18:43.963Z,51.13
2022-08-19T18:20:47.339Z,52.13
2022-08-19T18:22:51.433Z,51.25
2022-08-19T18:24:56.044Z,51.52
2022-08-19T18:26:59.464Z,50.92
2022-08-19T18:29:04.227Z,50.56
2022-08-19T18:31:07.911Z,50.64
2022-08-19T18:33:14.239Z,51.00
2022-08-19T18:35:20.535Z,51.46
2022-08-19T18:37:25.667Z,51.94
2022-08-19T18:39:46.643Z,52.01
2022-08-19T18:42:07.704Z,52.87
2022-08-19T18:44:30.052Z,53.36
2022-08-19T18:46:51.104Z,53.37
2022-08-19T18:49:07.931Z,53.57
2022-08-19T18:51:11.893Z,53.94
2022-08-19T18:53:16.187Z,54.27
2022-08-19T18:55:19.772Z,54.11
2022-08-19T18:57:24.819Z,54.00
2022-08-19T18:59:31.078Z,54.34
2022-08-19T19:01:39.379Z,54.36
2022-08-19T19:03:45.587Z,55.12
2022-08-19T19:05:49.681Z,55.65
2022-08-19T19:07:54.347Z,56.07
2022-08-19T19:09:57.988Z,54.08
2022-08-19T19:12:03.770Z,54.27
2022-08-19T19:14:19.122Z,53.12
2022-08-19T19:16:33.482Z,53.12
2022-08-19T19:18:37.396Z,53.78
2022-08-19T19:20:40.948Z,53.65
2022-08-19T19:22:44.317Z,53.46
2022-08-19T19:24:47.791Z,53.57
2022-08-19T19:26:53.389Z,53.87
2022-08-19T19:28:57.485Z,53.22
2022-08-19T19:31:00.931Z,52.50
2022-08-19T19:33:06.551Z,52.08
2022-08-19T19:35:10.633Z,51.65
2022-08-19T19:37:14.062Z,51.56
2022-08-19T19:39:30.699Z,51.11
2022-08-19T19:41:41.841Z,51.12
2022-08-19T19:43:45.242Z,50.90
2022-08-19T19:45:49.621Z,50.90
2022-08-19T19:47:53.197Z,49.81
2022-08-19T19:50:15.100Z,50.05
2022-08-19T19:52:24.684Z,50.44
2022-08-19T19:54:28.129Z,51.78
2022-08-19T19:56:31.566Z,50.88
2022-08-19T19:58:36.413Z,53.73
2022-08-19T20:00:40.249Z,50.39
2022-08-19T20:02:49.609Z,52.62
2022-08-19T20:04:56.220Z,51.10
2022-08-19T20:07:01.181Z,52.75
2022-08-19T20:09:10.810Z,52.84
2022-08-19T20:11:26.096Z,51.40
2022-08-19T20:13:29.900Z,52.11
2022-08-19T20:15:33.969Z,52.91
2022-08-19T20:17:42.454Z,52.73
2022-08-19T20:19:46.083Z,51.41
2022-08-19T20:21:51.453Z,52.24
2022-08-19T20:24:08.600Z,54.77
2022-08-19T20:26:22.630Z,53.15
2022-08-19T20:28:36.221Z,56.42
2022-08-19T20:30:45.577Z,56.17
2022-08-19T20:32:50.847Z,56.85
2022-08-19T20:34:54.370Z,57.14
2022-08-19T20:36:57.881Z,56.66
2022-08-19T20:39:03.062Z,58.59
2022-08-19T20:41:07.367Z,58.95
2022-08-19T20:43:12.378Z,60.98
2022-08-19T20:45:21.561Z,60.38
2022-08-19T20:47:36.236Z,60.29
2022-08-19T20:49:39.788Z,60.84
2022-08-19T20:51:46.589Z,61.19
2022-08-19T20:53:50.066Z,61.14
2022-08-19T20:55:59.969Z,61.44
2022-08-19T20:58:03.872Z,62.66
2022-08-19T21:00:10.621Z,64.05
2022-08-19T21:02:14.077Z,65.46
2022-08-19T21:04:17.496Z,65.58
2022-08-19T21:06:22.107Z,65.45
2022-08-19T21:08:28.280Z,65.28
2022-08-19T21:10:32.053Z,65.40
2022-08-19T21:12:36.855Z,66.46
2022-08-19T21:14:40.959Z,69.24
2022-08-19T21:16:44.590Z,69.47
2022-08-19T21:18:48.282Z,69.72
2022-08-19T21:20:52.236Z,69.57
2022-08-19T21:22:55.667Z,69.76
2022-08-19T21:24:59.177Z,70.01
2022-08-19T21:27:03.274Z,69.55
2022-08-19T21:29:09.757Z,69.76
2022-08-19T21:31:15.112Z,70.03
2022-08-19T21:33:18.608Z,69.85
2022-08-19T21:35:23.464Z,71.47
2022-08-19T21:37:26.958Z,71.33
2022-08-19T21:39:30.415Z,70.18
2022-08-19T21:41:34.019Z,71.38
2022-08-19T21:43:39.117Z,71.25
2022-08-19T21:45:43.919Z,71.02
2022-08-19T21:47:47.921Z,70.71
2022-08-19T21:49:51.336Z,70.75
2022-08-19T21:51:54.829Z,70.43
2022-08-19T21:53:58.352Z,71.04
2022-08-19T21:56:01.735Z,70.38
2022-08-19T21:58:05.233Z,71.23
2022-08-19T22:00:14.343Z,71.39
2022-08-19T22:02:22.066Z,71.47
2022-08-19T22:04:25.871Z,71.76
2022-08-19T22:06:29.976Z,71.48
2022-08-19T22:08:33.370Z,72.05
2022-08-19T22:10:38.036Z,72.25
2022-08-19T22:12:46.051Z,71.60
2022-08-19T22:14:56.056Z,70.92
2022-08-19T22:16:59.499Z,71.14
2022-08-19T22:19:04.713Z,71.32
2022-08-19T22:21:11.971Z,71.32
2022-08-19T22:23:15.788Z,71.24
2022-08-19T22:25:29.330Z,71.24
2022-08-19T22:27:35.373Z,71.23
2022-08-19T22:29:38.751Z,71.46
2022-08-19T22:31:42.738Z,71.70
2022-08-19T22:33:46.290Z,73.02
2022-08-19T22:35:53.383Z,72.98
2022-08-19T22:37:57.025Z,72.78
2022-08-19T22:40:05.591Z,72.64
2022-08-19T22:42:09.234Z,72.36
2022-08-19T22:44:12.619Z,72.44
2022-08-19T22:46:17.521Z,71.96
2022-08-19T22:48:23.774Z,72.35
2022-08-19T22:50:27.611Z,72.88
2022-08-19T22:52:31.663Z,72.36
2022-08-19T22:54:35.148Z,72.84
2022-08-19T22:56:38.878Z,72.92
2022-08-19T22:58:42.354Z,72.81
2022-08-19T23:00:47.041Z,73.00
2022-08-19T23:02:52.586Z,73.20
2022-08-19T23:04:56.686Z,72.87
2022-08-19T23:07:01.688Z,72.68
2022-08-19T23:09:09.027Z,73.10
2022-08-19T23:11:12.789Z,73.77
2022-08-19T23:13:17.191Z,73.50
2022-08-19T23:15:25.796Z,73.00
2022-08-19T23:17:29.379Z,72.43
2022-08-19T23:19:33.009Z,72.73
2022-08-19T23:21:37.249Z,72.79
2022-08-19T23:23:41.442Z,72.74
2022-08-19T23:25:47.865Z,72.70
2022-08-19T23:28:08.882Z,72.85
2022-08-19T23:30:27.250Z,73.07
2022-08-19T23:32:35.768Z,73.60
2022-08-19T23:34:39.348Z,73.61
2022-08-19T23:36:42.815Z,73.74
2022-08-19T23:38:48.251Z,73.83
2022-08-19T23:40:55.626Z,73.81
2022-08-19T23:42:59.099Z,73.80
2022-08-19T23:45:03.913Z,73.79
2022-08-19T23:47:07.660Z,73.68
2022-08-19T23:49:11.524Z,74.36
2022-08-19T23:51:17.489Z,74.33
2022-08-19T23:53:21.810Z,74.63
2022-08-19T23:55:29.469Z,75.06
2022-08-19T23:57:34.371Z,74.27
2022-08-19T23:59:37.730Z,74.37
